createdAt,value
2023-05-04T00:01:18.738Z,2.7375000000000003
2023-05-04T00:04:16.418Z,2.4625
2023-05-04T00:07:16.467Z,2.45
2023-05-04T00:11:17.731Z,2.8625
2023-05-04T00:14:17.278Z,2.8125
2023-05-04T00:17:17.127Z,2.175
2023-05-04T00:21:16.562Z,2.3875
2023-05-04T00:24:16.680Z,3
2023-05-04T00:27:16.673Z,2.65
2023-05-04T00:31:19.480Z,2.3375
2023-05-04T00:34:17.218Z,2.3375000000000004
2023-05-04T00:37:17.022Z,2.7249999999999996
2023-05-04T00:41:17.554Z,2.5625
2023-05-04T00:44:16.948Z,2.3375
2023-05-04T00:47:17.448Z,2.5374999999999996
2023-05-04T00:51:19.174Z,2.7750000000000004
2023-05-04T00:54:18.821Z,2.55
2023-05-04T00:57:17.719Z,2.9875
2023-05-04T01:01:16.245Z,2.925
2023-05-04T01:04:16.729Z,2.75
2023-05-04T01:07:24.117Z,2.3625
2023-05-04T01:11:25.031Z,2.8000000000000003
2023-05-04T01:14:20.253Z,2.75
2023-05-04T01:17:16.619Z,2.7375
2023-05-04T01:21:16.539Z,2.5999999999999996
2023-05-04T01:24:17.264Z,2
2023-05-04T01:27:22.685Z,3
2023-05-04T01:31:21.825Z,2.8
2023-05-04T01:34:17.325Z,3.45
2023-05-04T01:37:16.550Z,2.8125
2023-05-04T01:41:16.040Z,2.675
2023-05-04T01:44:16.829Z,2.6
2023-05-04T01:47:16.800Z,2.2875
2023-05-04T01:51:16.229Z,2.9250000000000003
2023-05-04T01:54:16.648Z,2.8875
2023-05-04T01:57:16.650Z,2.8125
2023-05-04T02:01:16.476Z,2.9250000000000003
2023-05-04T02:04:16.914Z,2.7125
2023-05-04T02:07:17.078Z,2.85
2023-05-04T02:11:16.365Z,2.95
2023-05-04T02:14:16.267Z,3.2
2023-05-04T02:17:16.166Z,2.925
2023-05-04T02:21:17.105Z,3.1125
2023-05-04T02:24:16.552Z,2.925
2023-05-04T02:27:16.662Z,2.475
2023-05-04T02:31:16.398Z,2.875
2023-05-04T02:34:16.726Z,2.3249999999999997
2023-05-04T02:37:16.707Z,2.825
2023-05-04T02:41:16.197Z,3.3
2023-05-04T02:44:16.468Z,3.125
2023-05-04T02:47:16.902Z,2.45
2023-05-04T02:51:17.515Z,3.15
2023-05-04T02:54:16.551Z,2.625
2023-05-04T02:57:16.689Z,3.3
2023-05-04T03:01:16.086Z,3.175
2023-05-04T03:04:16.648Z,2.4875
2023-05-04T03:07:16.573Z,3.7624999999999997
2023-05-04T03:11:16.590Z,3.2875
2023-05-04T03:14:16.343Z,2.9625
2023-05-04T03:17:16.240Z,3.175
2023-05-04T03:21:15.920Z,3.75
2023-05-04T03:24:17.591Z,3.125
2023-05-04T03:27:16.399Z,2.875
2023-05-04T03:31:16.563Z,3
2023-05-04T03:34:21.670Z,3.125
2023-05-04T03:37:16.947Z,3.6125
2023-05-04T03:41:16.563Z,3.3125
2023-05-04T03:44:17.021Z,3.4625000000000004
2023-05-04T03:47:17.000Z,2.9000000000000004
2023-05-04T03:51:16.578Z,3.0875
2023-05-04T03:54:16.848Z,2.4875
2023-05-04T03:57:16.876Z,3.25
2023-05-04T04:01:16.104Z,3.35
2023-05-04T04:04:17.001Z,3.0375
2023-05-04T04:07:16.736Z,4.3625
2023-05-04T04:11:16.151Z,3.0374999999999996
2023-05-04T04:14:16.499Z,2.6875
2023-05-04T04:17:16.627Z,3.3249999999999997
2023-05-04T04:21:16.434Z,3.5375
2023-05-04T04:24:16.512Z,3.6999999999999997
2023-05-04T04:27:16.201Z,4.025
2023-05-04T04:31:16.987Z,4.1125
2023-05-04T04:34:16.683Z,4.1125
2023-05-04T04:37:16.889Z,3.425
2023-05-04T04:41:17.480Z,3.075
2023-05-04T04:44:16.820Z,3.2
2023-05-04T04:47:17.857Z,3.2125
2023-05-04T04:51:15.885Z,3.55
2023-05-04T04:54:18.403Z,2.6375
2023-05-04T04:57:16.938Z,3.775
2023-05-04T05:01:18.144Z,3.3625
2023-05-04T05:04:16.141Z,3.5
2023-05-04T05:07:16.494Z,7.4624999999999995
2023-05-04T05:11:16.008Z,5.2
2023-05-04T05:14:16.213Z,3.325
2023-05-04T05:17:16.942Z,3.3125
2023-05-04T05:21:16.028Z,4.25
2023-05-04T05:24:16.591Z,3.8124999999999996
2023-05-04T05:27:16.511Z,3.8875
2023-05-04T05:31:16.665Z,3.625
2023-05-04T05:34:17.244Z,3.45
2023-05-04T05:37:16.847Z,3.2
2023-05-04T05:41:16.520Z,3.4625
2023-05-04T05:44:16.766Z,3.45
2023-05-04T05:47:17.064Z,3.5
2023-05-04T05:51:15.743Z,3.1
2023-05-04T05:54:16.879Z,3.9875
2023-05-04T05:57:16.128Z,3.0875
2023-05-04T06:01:16.052Z,3.6500000000000004
2023-05-04T06:04:16.462Z,3.1500000000000004
2023-05-04T06:07:16.631Z,3.2875
2023-05-04T06:11:16.654Z,4.0625
2023-05-04T06:14:17.092Z,3.325
2023-05-04T06:17:17.530Z,3.8
2023-05-04T06:21:16.093Z,5.2125
2023-05-04T06:24:16.618Z,4.325
2023-05-04T06:27:16.544Z,4.137499999999999
2023-05-04T06:31:15.750Z,4.25
2023-05-04T06:34:17.163Z,3.775
2023-05-04T06:37:16.300Z,3.15
2023-05-04T06:41:16.067Z,3.775
2023-05-04T06:44:17.782Z,4.125
2023-05-04T06:47:16.737Z,3.3125
2023-05-04T06:51:16.301Z,3.8125
2023-05-04T06:54:16.661Z,4.2
2023-05-04T06:57:16.558Z,2.9499999999999997
2023-05-04T07:01:18.417Z,3.95
2023-05-04T07:04:17.236Z,4.025
2023-05-04T07:07:17.071Z,3.7125
2023-05-04T07:11:15.994Z,3.7624999999999997
2023-05-04T07:14:16.557Z,3.3125
2023-05-04T07:17:16.757Z,3.9125000000000005
2023-05-04T07:21:27.464Z,4.275
2023-05-04T07:24:16.031Z,3.7375
2023-05-04T07:27:15.983Z,3.4375
2023-05-04T07:31:16.162Z,4.0625
2023-05-04T07:34:16.502Z,4.2125
2023-05-04T07:37:16.573Z,3.8
2023-05-04T07:41:16.046Z,3.775
2023-05-04T07:44:16.789Z,3.925
2023-05-04T07:47:16.582Z,3.6125
2023-05-04T07:51:16.568Z,4.225
2023-05-04T07:54:16.744Z,4.625
2023-05-04T07:57:16.614Z,4.3875
2023-05-04T08:01:15.602Z,5.824999999999999
2023-05-04T08:04:48.582Z,4.95
2023-05-04T08:07:17.304Z,4.35
2023-05-04T08:11:20.618Z,4.875
2023-05-04T08:14:16.680Z,4.6
2023-05-04T08:17:16.659Z,4.25
2023-05-04T08:21:16.085Z,4.1
2023-05-04T08:24:17.243Z,4.15
2023-05-04T08:27:16.351Z,3.8875
2023-05-04T08:31:16.347Z,4.0375
2023-05-04T08:34:16.716Z,3.6375
2023-05-04T08:37:16.442Z,3.3875
2023-05-04T08:41:16.755Z,3.6875
2023-05-04T08:44:17.234Z,3.375
2023-05-04T08:47:16.854Z,3.3125
2023-05-04T08:51:16.891Z,3.725
2023-05-04T08:54:17.573Z,2.8499999999999996
2023-05-04T08:57:16.868Z,3.2375
2023-05-04T09:01:17.803Z,3.2375
2023-05-04T09:04:17.559Z,2.775
2023-05-04T09:07:18.548Z,3.05
2023-05-04T09:11:16.779Z,3.3125
2023-05-04T09:14:16.794Z,2.8625000000000003
2023-05-04T09:17:19.683Z,2.6375
2023-05-04T09:21:28.321Z,3.2
2023-05-04T09:24:25.382Z,2.7
2023-05-04T09:27:16.403Z,3.2625
2023-05-04T09:31:16.395Z,3.175
2023-05-04T09:34:17.555Z,2.6500000000000004
2023-05-04T09:37:17.347Z,2.7
2023-05-04T09:41:16.564Z,2.2875
2023-05-04T09:44:19.000Z,2.9124999999999996
2023-05-04T09:47:19.335Z,2.075
2023-05-04T09:51:18.929Z,3.55
2023-05-04T09:54:18.278Z,2.3625
2023-05-04T09:57:17.789Z,2.3875
2023-05-04T10:01:17.473Z,2.4625
2023-05-04T10:04:17.390Z,2.4875
2023-05-04T10:07:18.289Z,2.2125
2023-05-04T10:11:19.063Z,2.3375000000000004
2023-05-04T10:14:17.424Z,2.2
2023-05-04T10:17:27.905Z,2.0749999999999997
2023-05-04T10:21:28.382Z,2.6125
2023-05-04T10:24:36.828Z,2.2
2023-05-04T10:27:20.638Z,2.45
2023-05-04T10:31:18.413Z,2.95
2023-05-04T10:34:25.478Z,2.3875
2023-05-04T10:37:18.828Z,2.8375
2023-05-04T10:41:17.672Z,2.9625
2023-05-04T10:44:16.696Z,3.4375
2023-05-04T10:47:27.538Z,3.05
2023-05-04T10:51:18.530Z,2.8249999999999997
2023-05-04T10:54:17.915Z,2.1625
2023-05-04T10:57:17.806Z,2.7375
2023-05-04T11:01:16.444Z,3.175
2023-05-04T11:04:19.174Z,3.0375
2023-05-04T11:07:16.408Z,2.975
2023-05-04T11:11:16.798Z,3.475
2023-05-04T11:14:28.288Z,3.0500000000000003
2023-05-04T11:17:27.636Z,3.2874999999999996
2023-05-04T11:21:23.713Z,3.125
2023-05-04T11:24:16.698Z,2.7875
2023-05-04T11:27:24.767Z,2.6625
2023-05-04T11:31:19.177Z,3.125
2023-05-04T11:34:19.226Z,3.2125000000000004
2023-05-04T11:41:16.775Z,2.825
2023-05-04T11:44:18.218Z,2.7125
2023-05-04T11:47:18.363Z,3.1500000000000004
2023-05-04T11:51:16.897Z,2.3125
2023-05-04T11:54:21.124Z,2.6624999999999996
2023-05-04T11:57:21.395Z,2.4375
2023-05-04T12:01:17.237Z,2.675
2023-05-04T12:04:17.472Z,2.5999999999999996
2023-05-04T12:07:17.215Z,2.5125
2023-05-04T12:11:18.285Z,2.6625
2023-05-04T12:14:17.361Z,2.1125000000000003
2023-05-04T12:17:16.735Z,2.8499999999999996
2023-05-04T12:21:18.235Z,2.6875
2023-05-04T12:24:17.078Z,2.55
2023-05-04T12:27:16.679Z,2.5250000000000004
2023-05-04T12:31:17.026Z,2.2750000000000004
2023-05-04T12:34:17.640Z,2.5
2023-05-04T12:37:17.301Z,3.0625
2023-05-04T12:41:16.324Z,2.7875
2023-05-04T12:44:17.156Z,2.8
2023-05-04T12:47:17.895Z,2.5250000000000004
2023-05-04T12:51:16.112Z,2.7375
2023-05-04T12:54:16.488Z,3.075
2023-05-04T12:57:16.776Z,2.95
2023-05-04T13:01:17.116Z,2.9125
2023-05-04T13:04:17.195Z,3.2
2023-05-04T13:07:16.639Z,2.6625
2023-05-04T13:11:19.268Z,3.0125
2023-05-04T13:14:16.670Z,2.6125
2023-05-04T13:17:18.401Z,2.45
2023-05-04T13:21:16.961Z,2.2125
2023-05-04T13:24:16.922Z,2.2625
2023-05-04T13:27:17.017Z,2.05
2023-05-04T13:31:16.129Z,2.875
2023-05-04T13:34:16.495Z,3
2023-05-04T13:37:18.806Z,2.7375
2023-05-04T13:41:15.821Z,2.925
2023-05-04T13:44:16.412Z,3.0500000000000003
2023-05-04T13:47:16.830Z,2.5875
2023-05-04T13:51:16.106Z,2.7874999999999996
2023-05-04T13:54:16.466Z,2.75
2023-05-04T13:57:16.604Z,2.4749999999999996
2023-05-04T14:01:16.409Z,3.425
2023-05-04T14:04:16.581Z,3.0875000000000004
2023-05-04T14:07:16.538Z,2.7375
2023-05-04T14:11:16.435Z,2.8125
2023-05-04T14:14:16.886Z,2.45
2023-05-04T14:17:16.855Z,2.3625
2023-05-04T14:21:16.509Z,2.6875
2023-05-04T14:24:16.904Z,2.7125000000000004
2023-05-04T14:27:17.696Z,2.3
2023-05-04T14:31:16.551Z,2.95
2023-05-04T14:34:16.880Z,2.7125000000000004
2023-05-04T14:37:16.780Z,2.6125
2023-05-04T14:41:15.910Z,3.3
2023-05-04T14:44:16.541Z,2.4375
2023-05-04T14:47:16.278Z,2.875
2023-05-04T14:51:21.550Z,2.55
2023-05-04T14:54:16.922Z,2.3125
2023-05-04T14:57:17.231Z,2.9125
2023-05-04T15:01:16.058Z,3.2375
2023-05-04T15:04:17.193Z,3.2
2023-05-04T15:07:18.744Z,3.125
2023-05-04T15:11:17.544Z,3.6625
2023-05-04T15:14:17.054Z,3.3499999999999996
2023-05-04T15:17:20.029Z,3.6125
2023-05-04T15:21:16.518Z,3.9250000000000003
2023-05-04T15:24:16.687Z,3.2
2023-05-04T15:27:16.637Z,3.4375
2023-05-04T15:31:17.198Z,3.7
2023-05-04T15:34:18.447Z,3.5
2023-05-04T15:37:16.794Z,3.275
2023-05-04T15:41:16.001Z,3.2375
2023-05-04T15:44:16.599Z,3.1625
2023-05-04T15:47:16.852Z,3.6375
2023-05-04T15:51:16.146Z,3.5125
2023-05-04T15:54:16.394Z,3.1375
2023-05-04T15:57:16.884Z,3.35
2023-05-04T16:01:16.155Z,2.95
2023-05-04T16:04:16.657Z,3.6499999999999995
2023-05-04T16:07:16.432Z,3.7250000000000005
2023-05-04T16:11:16.836Z,3.9
2023-05-04T16:14:17.031Z,3.55
2023-05-04T16:17:16.922Z,3.2
2023-05-04T16:21:16.280Z,3.5375
2023-05-04T16:24:16.496Z,3.4125
2023-05-04T16:27:16.637Z,2.9625
2023-05-04T16:31:15.845Z,3.6875
2023-05-04T16:34:16.122Z,3.0625
2023-05-04T16:37:17.395Z,2.6125
2023-05-04T16:41:17.309Z,3.6125
2023-05-04T16:44:16.587Z,3.2875
2023-05-04T16:47:16.578Z,3.4625000000000004
2023-05-04T16:51:16.360Z,3.275
2023-05-04T16:54:16.561Z,3.025
2023-05-04T16:57:16.763Z,3.075
2023-05-04T17:01:16.584Z,3.45
2023-05-04T17:04:16.799Z,2.6500000000000004
2023-05-04T17:07:16.835Z,2.7
2023-05-04T17:11:16.578Z,3.1875
2023-05-04T17:14:16.898Z,2.75
2023-05-04T17:17:16.995Z,3.325
2023-05-04T17:21:16.310Z,3.425
2023-05-04T17:24:17.252Z,3.1624999999999996
2023-05-04T17:27:16.562Z,2.8499999999999996
2023-05-04T17:31:16.539Z,3.5
2023-05-04T17:34:17.117Z,2.5999999999999996
2023-05-04T17:37:16.779Z,3.1499999999999995
2023-05-04T17:41:16.217Z,3.6875
2023-05-04T17:44:17.224Z,3.1750000000000003
2023-05-04T17:47:16.746Z,3.1625
2023-05-04T17:51:17.317Z,3.4875
2023-05-04T17:54:17.335Z,2.6125
2023-05-04T17:57:17.190Z,3.6375
2023-05-04T18:01:17.211Z,4.3125
2023-05-04T18:04:17.424Z,2.4125
2023-05-04T18:07:16.996Z,2.875
2023-05-04T18:11:16.449Z,3.425
2023-05-04T18:14:16.816Z,3.0625
2023-05-04T18:17:16.748Z,3.775
2023-05-04T18:21:16.762Z,3.2125
2023-05-04T18:24:17.110Z,3.4375
2023-05-04T18:27:17.217Z,2.7625
2023-05-04T18:41:16.837Z,3.175
2023-05-04T18:44:16.572Z,2.9499999999999997
2023-05-04T18:47:16.561Z,2.875
2023-05-04T18:51:16.628Z,3.2125
2023-05-04T18:54:17.524Z,3.3375
2023-05-04T18:57:17.410Z,3.2625
2023-05-04T19:01:16.681Z,3.4625
2023-05-04T19:04:17.273Z,2.875
2023-05-04T19:07:17.292Z,3.1125
2023-05-04T19:11:15.932Z,4.4
2023-05-04T19:14:16.833Z,3.7375
2023-05-04T19:17:16.273Z,4.175
2023-05-04T19:21:16.940Z,3.2625
2023-05-04T19:31:16.349Z,3.2375
2023-05-04T19:34:17.755Z,3.3125
2023-05-04T19:37:16.602Z,3.675
2023-05-04T19:41:16.653Z,3.9875000000000003
2023-05-04T19:44:16.895Z,3.6875
2023-05-04T19:47:17.343Z,2.675
2023-05-04T19:51:16.669Z,3.4375
2023-05-04T19:54:16.720Z,3.8125
2023-05-04T19:57:16.877Z,3.1875
2023-05-04T20:01:16.303Z,3.4125
2023-05-04T20:04:17.005Z,3.3875
2023-05-04T20:07:16.697Z,3.8249999999999997
2023-05-04T20:11:16.571Z,4.475
2023-05-04T20:14:17.548Z,4.2749999999999995
2023-05-04T20:17:17.226Z,2.95
2023-05-04T20:21:16.354Z,4.0249999999999995
2023-05-04T20:24:17.235Z,4.199999999999999
2023-05-04T20:27:16.673Z,3.55
2023-05-04T20:31:16.370Z,3.8
2023-05-04T20:34:18.292Z,3.3875
2023-05-04T20:37:16.539Z,4.2125
2023-05-04T20:41:16.235Z,3.8625
2023-05-04T20:44:17.357Z,3.9000000000000004
2023-05-04T20:47:16.527Z,3.8374999999999995
2023-05-04T20:51:16.578Z,3.875
2023-05-04T20:54:17.351Z,3.2375
2023-05-04T20:57:16.697Z,3.9624999999999995
2023-05-04T21:01:16.644Z,3.5625
2023-05-04T21:04:17.142Z,3.7125
2023-05-04T21:07:17.563Z,4.0625
2023-05-04T21:11:16.557Z,6.2
2023-05-04T21:14:16.909Z,5.3375
2023-05-04T21:17:16.994Z,3.1875
2023-05-04T21:21:16.774Z,3.65
2023-05-04T21:24:17.122Z,2.8125
2023-05-04T21:27:17.176Z,2.4375
2023-05-04T21:31:21.493Z,4.2125
2023-05-04T21:34:21.723Z,3.8499999999999996
2023-05-04T21:37:21.925Z,3.4000000000000004
2023-05-04T21:41:16.568Z,4.199999999999999
2023-05-04T21:44:16.712Z,3.8499999999999996
2023-05-04T21:47:16.902Z,3.3875
2023-05-04T21:51:18.748Z,3.8625
2023-05-04T21:54:16.781Z,3.825
2023-05-04T21:57:17.045Z,3.0125
2023-05-04T22:01:18.147Z,3.625
2023-05-04T22:04:16.548Z,3.3125
2023-05-04T22:07:16.138Z,3.6125
2023-05-04T22:11:16.765Z,3.6999999999999997
2023-05-04T22:14:17.636Z,3.7625
2023-05-04T22:17:16.952Z,3.5125
2023-05-04T22:21:16.628Z,4.275
2023-05-04T22:24:17.792Z,3.025
2023-05-04T22:27:16.850Z,3.9375
2023-05-04T22:31:16.834Z,4.0875
2023-05-04T22:34:16.929Z,3.5375
2023-05-04T22:37:16.996Z,3.225
2023-05-04T22:41:16.731Z,4.175000000000001
2023-05-04T22:44:17.109Z,3.8
2023-05-04T22:47:17.240Z,3.725
2023-05-04T22:51:16.492Z,4.075
2023-05-04T22:54:16.749Z,3.85
2023-05-04T22:57:16.879Z,3.25
2023-05-04T23:01:16.127Z,3.8999999999999995
2023-05-04T23:04:16.752Z,4.4
2023-05-04T23:07:16.791Z,4.4625
2023-05-04T23:11:19.260Z,4.0125
2023-05-04T23:14:16.541Z,4.387499999999999
2023-05-04T23:17:16.614Z,3.4125
2023-05-04T23:31:16.551Z,5.4625
2023-05-04T23:34:17.137Z,4.4375
2023-05-04T23:37:16.881Z,4.4625
2023-05-04T23:41:16.490Z,6.199999999999999
2023-05-04T23:44:16.888Z,4.9
2023-05-04T23:47:16.816Z,4.050000000000001
2023-05-04T23:51:16.588Z,4.125
2023-05-04T23:54:16.866Z,3.9875
2023-05-04T23:57:17.068Z,3.8125
